createdAt,value
2023-01-08T00:00:22.202Z,89.45
2023-01-08T00:02:51.455Z,89.18
2023-01-08T00:05:19.506Z,79.72
2023-01-08T00:07:47.753Z,90.78
2023-01-08T00:10:15.898Z,85.82
2023-01-08T00:12:43.811Z,82.75
2023-01-08T00:15:11.757Z,88.00
2023-01-08T00:17:39.907Z,60.70
2023-01-08T00:20:08.533Z,81.95
2023-01-08T00:22:36.587Z,88.90
2023-01-08T00:25:05.387Z,78.15
2023-01-08T00:27:33.578Z,73.85
2023-01-08T00:30:01.836Z,77.22
2023-01-08T00:32:32.383Z,73.15
2023-01-08T00:35:01.958Z,77.50
2023-01-08T00:37:31.803Z,77.25
2023-01-08T00:39:59.959Z,82.93
2023-01-08T00:42:28.182Z,77.82
2023-01-08T00:44:56.178Z,72.50
2023-01-08T00:47:24.338Z,76.60
2023-01-08T00:49:52.458Z,70.82
2023-01-08T00:52:20.490Z,56.88
2023-01-08T00:54:48.542Z,55.97
2023-01-08T00:57:16.920Z,53.22
2023-01-08T00:59:45.140Z,57.05
2023-01-08T01:02:13.294Z,63.55
2023-01-08T01:04:41.359Z,64.22
2023-01-08T01:07:09.697Z,67.40
2023-01-08T01:09:38.227Z,60.40
2023-01-08T01:12:06.657Z,50.17
2023-01-08T01:14:34.950Z,41.95
2023-01-08T01:17:02.967Z,47.83
2023-01-08T01:19:31.161Z,52.45
2023-01-08T01:21:59.840Z,58.10
2023-01-08T01:24:28.144Z,55.22
2023-01-08T01:26:58.792Z,58.85
2023-01-08T01:29:26.991Z,60.72
2023-01-08T01:31:58.897Z,59.00
2023-01-08T01:34:26.910Z,52.65
2023-01-08T01:36:56.128Z,53.05
2023-01-08T01:39:24.853Z,53.67
2023-01-08T01:41:53.668Z,53.55
2023-01-08T01:44:44.092Z,53.03
2023-01-08T01:47:33.183Z,55.55
2023-01-08T01:50:26.560Z,49.00
2023-01-08T01:52:58.628Z,56.63
2023-01-08T01:55:27.903Z,50.35
2023-01-08T01:58:17.178Z,57.20
2023-01-08T02:00:45.464Z,51.67
2023-01-08T02:03:15.305Z,46.95
2023-01-08T02:06:20.624Z,50.10
2023-01-08T02:08:51.864Z,49.00
2023-01-08T02:11:45.912Z,50.25
2023-01-08T02:14:28.495Z,55.05
2023-01-08T02:17:05.288Z,50.67
2023-01-08T02:20:14.579Z,50.45
2023-01-08T02:22:47.160Z,53.53
2023-01-08T02:25:38.053Z,51.50
2023-01-08T02:28:11.487Z,49.03
2023-01-08T02:33:07.786Z,48.65
2023-01-08T02:35:42.970Z,53.95
2023-01-08T02:38:16.148Z,49.80
2023-01-08T02:40:59.041Z,48.63
2023-01-08T02:43:41.993Z,51.13
2023-01-08T02:46:14.731Z,50.58
2023-01-08T02:48:47.911Z,49.83
2023-01-08T02:51:31.302Z,48.97
2023-01-08T02:54:04.506Z,47.83
2023-01-08T02:56:52.055Z,49.05
2023-01-08T02:59:22.797Z,53.97
2023-01-08T03:01:51.652Z,52.85
2023-01-08T03:04:25.141Z,50.00
2023-01-08T03:09:21.429Z,50.13
2023-01-08T03:11:55.732Z,47.53
2023-01-08T03:14:28.762Z,48.95
2023-01-08T03:16:57.209Z,55.65
2023-01-08T03:19:39.554Z,56.10
2023-01-08T03:22:12.210Z,55.85
2023-01-08T03:24:42.945Z,59.35
2023-01-08T03:27:15.937Z,56.75
2023-01-08T03:29:46.528Z,54.38
2023-01-08T03:32:17.732Z,54.55
2023-01-08T03:34:48.387Z,52.88
2023-01-08T03:37:19.775Z,55.63
2023-01-08T03:39:59.202Z,60.10
2023-01-08T03:42:29.446Z,56.38
2023-01-08T03:44:59.360Z,63.05
2023-01-08T03:47:32.595Z,62.55
2023-01-08T03:50:07.913Z,66.28
2023-01-08T03:52:36.035Z,60.58
2023-01-08T03:55:04.815Z,65.32
2023-01-08T03:57:32.900Z,71.38
2023-01-08T04:00:01.604Z,76.70
2023-01-08T04:02:30.545Z,77.45
2023-01-08T04:05:02.130Z,85.05
2023-01-08T04:07:31.978Z,83.20
2023-01-08T04:10:00.663Z,89.22
2023-01-08T04:12:29.060Z,66.63
2023-01-08T04:14:57.972Z,56.92
2023-01-08T04:17:26.599Z,51.83
2023-01-08T04:19:54.672Z,49.67
2023-01-08T04:22:22.752Z,47.72
2023-01-08T04:24:50.826Z,45.85
2023-01-08T04:27:19.140Z,44.67
2023-01-08T04:29:47.182Z,45.95
2023-01-08T04:32:15.689Z,45.33
2023-01-08T04:34:43.806Z,48.45
2023-01-08T04:37:11.986Z,64.05
2023-01-08T04:39:41.150Z,58.72
2023-01-08T04:42:09.160Z,60.15
2023-01-08T04:44:37.765Z,64.45
2023-01-08T04:47:05.873Z,67.00
2023-01-08T04:49:33.829Z,66.22
2023-01-08T04:52:01.922Z,60.25
2023-01-08T04:54:29.957Z,51.00
2023-01-08T04:56:58.193Z,49.17
2023-01-08T04:59:26.287Z,69.25
2023-01-08T05:01:54.445Z,43.70
2023-01-08T05:04:23.091Z,40.95
2023-01-08T05:06:51.751Z,36.20
2023-01-08T05:09:20.156Z,32.42
2023-01-08T05:11:48.175Z,38.15
2023-01-08T05:14:16.374Z,33.15
2023-01-08T05:16:44.415Z,31.80
2023-01-08T05:19:13.797Z,28.85
2023-01-08T05:21:42.724Z,29.88
2023-01-08T05:24:11.206Z,32.65
2023-01-08T05:26:39.822Z,30.77
2023-01-08T05:29:08.095Z,30.67
2023-01-08T05:31:36.497Z,28.80
2023-01-08T05:34:04.531Z,30.42
2023-01-08T05:36:32.569Z,35.30
2023-01-08T05:39:00.822Z,40.85
2023-01-08T05:41:29.254Z,42.55
2023-01-08T05:43:57.315Z,42.17
2023-01-08T05:46:25.482Z,46.80
2023-01-08T05:48:53.577Z,52.58
2023-01-08T05:51:21.557Z,51.60
2023-01-08T05:53:49.616Z,56.28
2023-01-08T05:56:17.549Z,57.22
2023-01-08T05:58:45.625Z,53.13
2023-01-08T06:01:18.617Z,54.42
2023-01-08T06:03:46.999Z,44.88
2023-01-08T06:06:16.867Z,51.10
2023-01-08T06:08:45.216Z,46.30
2023-01-08T06:11:13.763Z,44.10
2023-01-08T06:13:44.437Z,45.38
2023-01-08T06:16:13.472Z,49.65
2023-01-08T06:18:42.381Z,50.83
2023-01-08T06:21:13.410Z,48.35
2023-01-08T06:23:41.791Z,52.88
2023-01-08T06:26:09.905Z,53.35
2023-01-08T06:28:38.139Z,59.72
2023-01-08T06:31:07.778Z,60.72
2023-01-08T06:33:35.903Z,55.85
2023-01-08T06:36:05.923Z,60.95
2023-01-08T06:38:35.953Z,57.00
2023-01-08T06:41:05.821Z,53.88
2023-01-08T06:43:36.352Z,47.78
2023-01-08T06:46:08.996Z,44.78
2023-01-08T06:48:39.516Z,55.63
2023-01-08T06:51:08.350Z,94.93
2023-01-08T06:53:42.807Z,80.97
2023-01-08T06:56:11.270Z,71.80
2023-01-08T06:58:39.797Z,73.90
2023-01-08T07:01:11.950Z,55.30
2023-01-08T07:03:40.349Z,58.22
2023-01-08T07:06:30.161Z,50.03
2023-01-08T07:08:59.104Z,48.60
2023-01-08T07:11:27.178Z,39.75
2023-01-08T07:13:56.923Z,43.63
2023-01-08T07:16:25.740Z,45.88
2023-01-08T07:18:54.009Z,41.47
2023-01-08T07:21:22.708Z,45.20
2023-01-08T07:23:51.151Z,48.67
2023-01-08T07:26:19.769Z,47.22
2023-01-08T07:28:48.118Z,43.20
2023-01-08T07:31:16.625Z,42.42
2023-01-08T07:33:44.749Z,34.97
2023-01-08T07:36:13.163Z,30.77
2023-01-08T07:38:41.695Z,41.70
2023-01-08T07:41:09.819Z,45.97
2023-01-08T07:43:37.821Z,54.42
2023-01-08T07:46:06.453Z,50.15
2023-01-08T07:48:34.883Z,47.60
2023-01-08T07:51:04.919Z,52.80
2023-01-08T07:53:33.534Z,63.75
2023-01-08T07:56:03.539Z,50.35
2023-01-08T07:58:32.064Z,53.03
2023-01-08T08:01:00.517Z,48.38
2023-01-08T08:03:29.260Z,66.63
2023-01-08T08:05:57.553Z,50.45
2023-01-08T08:08:25.667Z,46.75
2023-01-08T08:10:53.630Z,42.95
2023-01-08T08:13:21.836Z,36.58
2023-01-08T08:15:51.236Z,37.50
2023-01-08T08:18:20.282Z,35.10
2023-01-08T08:20:52.305Z,36.97
2023-01-08T08:23:20.407Z,39.03
2023-01-08T08:25:49.589Z,38.88
2023-01-08T08:28:18.406Z,40.15
2023-01-08T08:30:46.849Z,39.55
2023-01-08T08:33:15.180Z,37.38
2023-01-08T08:35:50.238Z,33.50
2023-01-08T08:38:18.975Z,31.77
2023-01-08T08:40:47.287Z,34.40
2023-01-08T08:43:15.788Z,35.88
2023-01-08T08:45:53.636Z,35.42
2023-01-08T08:48:23.332Z,37.97
2023-01-08T08:50:51.436Z,39.03
2023-01-08T08:53:20.319Z,40.05
2023-01-08T08:55:48.329Z,43.33
2023-01-08T08:58:16.441Z,44.45
2023-01-08T09:00:44.958Z,41.33
2023-01-08T09:03:15.070Z,37.72
2023-01-08T09:05:44.146Z,36.17
2023-01-08T09:08:13.560Z,35.42
2023-01-08T09:10:45.063Z,41.63
2023-01-08T09:13:13.318Z,43.55
2023-01-08T09:15:43.713Z,30.30
2023-01-08T09:18:12.872Z,37.05
2023-01-08T09:20:41.803Z,29.30
2023-01-08T09:23:10.240Z,32.05
2023-01-08T09:25:38.382Z,34.22
2023-01-08T09:28:09.215Z,27.00
2023-01-08T09:30:41.651Z,26.10
2023-01-08T09:33:10.443Z,28.70
2023-01-08T09:35:38.657Z,28.33
2023-01-08T09:38:07.466Z,29.25
2023-01-08T09:40:43.271Z,27.92
2023-01-08T09:43:21.628Z,26.25
2023-01-08T09:45:55.744Z,25.63
2023-01-08T09:48:30.354Z,25.08
2023-01-08T09:51:02.264Z,26.67
2023-01-08T09:53:31.149Z,25.38
2023-01-08T09:56:10.600Z,24.98
2023-01-08T09:58:40.486Z,26.90
2023-01-08T10:01:14.144Z,23.80
2023-01-08T10:03:53.972Z,22.17
2023-01-08T10:06:25.601Z,23.25
2023-01-08T10:08:54.155Z,26.67
2023-01-08T10:11:24.140Z,21.85
2023-01-08T10:13:56.406Z,23.83
2023-01-08T10:16:30.626Z,21.15
2023-01-08T10:19:00.194Z,25.27
2023-01-08T10:21:33.727Z,22.52
2023-01-08T10:24:02.344Z,19.02
2023-01-08T10:26:38.662Z,17.73
2023-01-08T10:29:17.562Z,17.77
2023-01-08T10:31:48.581Z,19.30
2023-01-08T10:34:43.329Z,24.08
2023-01-08T10:37:22.913Z,20.02
2023-01-08T10:39:53.111Z,21.45
2023-01-08T10:42:22.760Z,20.15
2023-01-08T10:45:04.339Z,31.33
2023-01-08T10:47:36.542Z,15.90
2023-01-08T10:50:13.904Z,17.33
2023-01-08T10:52:53.800Z,15.38
2023-01-08T10:55:33.469Z,20.05
2023-01-08T10:58:04.619Z,19.17
2023-01-08T11:00:35.482Z,26.08
2023-01-08T11:03:19.446Z,18.92
2023-01-08T11:05:47.684Z,20.08
2023-01-08T11:08:23.260Z,18.65
2023-01-08T11:10:56.848Z,19.90
2023-01-08T11:13:26.707Z,14.75
2023-01-08T11:16:03.969Z,14.80
2023-01-08T11:18:42.612Z,16.20
2023-01-08T11:21:23.027Z,16.95
2023-01-08T11:24:16.763Z,17.67
2023-01-08T11:29:21.228Z,15.80
2023-01-08T11:32:07.928Z,14.68
2023-01-08T11:34:39.985Z,18.23
2023-01-08T11:37:36.566Z,16.88
2023-01-08T11:40:18.150Z,22.63
2023-01-08T11:43:19.919Z,26.83
2023-01-08T11:46:06.316Z,22.58
2023-01-08T11:49:11.335Z,22.35
2023-01-08T11:52:25.203Z,19.65
2023-01-08T11:55:41.548Z,19.55
2023-01-08T11:58:30.364Z,22.15
2023-01-08T12:01:36.192Z,23.63
2023-01-08T12:04:35.232Z,19.73
2023-01-08T12:07:26.499Z,19.45
2023-01-08T12:10:18.576Z,20.27
2023-01-08T12:13:03.605Z,15.75
2023-01-08T12:15:56.847Z,15.52
2023-01-08T12:18:54.487Z,8.88
2023-01-08T12:21:40.053Z,17.40
2023-01-08T12:24:23.051Z,12.25
2023-01-08T12:26:57.900Z,16.48
2023-01-08T12:29:52.139Z,13.48
2023-01-08T12:32:55.564Z,18.15
2023-01-08T12:35:28.162Z,12.85
2023-01-08T12:38:01.725Z,11.00
2023-01-08T12:40:36.682Z,16.10
2023-01-08T12:43:10.078Z,15.95
2023-01-08T12:45:51.081Z,15.55
2023-01-08T12:48:25.304Z,20.33
2023-01-08T12:51:04.808Z,16.23
2023-01-08T12:53:42.010Z,18.42
2023-01-08T12:56:16.105Z,25.65
2023-01-08T12:58:55.215Z,17.38
2023-01-08T13:01:23.827Z,16.83
2023-01-08T13:03:54.205Z,16.90
2023-01-08T13:06:22.992Z,17.38
2023-01-08T13:08:57.173Z,18.48
2023-01-08T13:11:26.600Z,21.90
2023-01-08T13:14:26.768Z,22.10
2023-01-08T13:17:08.447Z,18.05
2023-01-08T13:19:42.396Z,23.52
2023-01-08T13:22:29.065Z,26.60
2023-01-08T13:25:15.758Z,27.52
2023-01-08T13:27:46.404Z,27.50
2023-01-08T13:30:34.441Z,25.88
2023-01-08T13:33:02.860Z,22.88
2023-01-08T13:35:32.277Z,24.25
2023-01-08T13:38:13.856Z,24.42
2023-01-08T13:40:47.441Z,21.23
2023-01-08T13:43:51.251Z,25.92
2023-01-08T13:46:20.731Z,28.55
2023-01-08T13:49:03.540Z,22.92
2023-01-08T13:51:43.991Z,16.52
2023-01-08T13:54:18.026Z,19.10
2023-01-08T13:56:53.873Z,18.65
2023-01-08T13:59:31.546Z,15.10
2023-01-08T14:02:01.610Z,16.40
2023-01-08T14:04:29.960Z,19.60
2023-01-08T14:07:14.590Z,18.17
2023-01-08T14:09:42.856Z,21.52
2023-01-08T14:12:23.384Z,25.48
2023-01-08T14:14:58.922Z,23.15
2023-01-08T14:17:32.925Z,25.85
2023-01-08T14:20:01.103Z,27.17
2023-01-08T14:22:36.190Z,28.63
2023-01-08T14:25:07.909Z,28.02
2023-01-08T14:27:36.314Z,30.13
2023-01-08T14:30:16.960Z,30.33
2023-01-08T14:32:45.599Z,29.30
2023-01-08T14:35:26.958Z,35.38
2023-01-08T14:37:55.580Z,30.98
2023-01-08T14:40:40.024Z,32.80
2023-01-08T14:43:15.474Z,34.65
2023-01-08T14:45:55.979Z,32.25
2023-01-08T14:48:42.890Z,29.90
2023-01-08T14:51:16.910Z,31.73
2023-01-08T14:53:48.742Z,33.63
2023-01-08T14:56:20.308Z,33.45
2023-01-08T14:58:49.061Z,34.72
2023-01-08T15:01:22.760Z,38.55
2023-01-08T15:03:54.034Z,40.38
2023-01-08T15:06:31.304Z,40.95
2023-01-08T15:09:00.522Z,45.67
2023-01-08T15:11:32.186Z,39.65
2023-01-08T15:14:00.721Z,41.83
2023-01-08T15:16:38.155Z,38.35
2023-01-08T15:19:13.245Z,37.40
2023-01-08T15:21:52.749Z,40.38
2023-01-08T15:24:33.076Z,39.70
2023-01-08T15:27:10.379Z,41.70
2023-01-08T15:29:47.463Z,37.70
2023-01-08T15:32:15.468Z,38.80
2023-01-08T15:34:45.560Z,41.88
2023-01-08T15:37:16.140Z,41.63
2023-01-08T15:39:44.874Z,42.80
2023-01-08T15:42:49.322Z,40.42
2023-01-08T15:45:23.716Z,38.67
2023-01-08T15:47:52.309Z,38.53
2023-01-08T15:50:21.268Z,44.33
2023-01-08T15:52:50.107Z,37.33
2023-01-08T15:55:24.804Z,39.92
2023-01-08T15:57:55.437Z,46.17
2023-01-08T16:00:24.446Z,42.45
2023-01-08T16:02:54.191Z,55.03
2023-01-08T16:05:24.506Z,68.88
2023-01-08T16:07:53.032Z,66.85
2023-01-08T16:10:21.685Z,79.90
2023-01-08T16:12:49.855Z,64.88
2023-01-08T16:15:18.533Z,55.72
2023-01-08T16:17:46.626Z,56.47
2023-01-08T16:20:15.548Z,56.67
2023-01-08T16:22:54.806Z,54.40
2023-01-08T16:25:24.904Z,53.85
2023-01-08T16:27:53.013Z,51.95
2023-01-08T16:30:21.473Z,57.55
2023-01-08T16:32:53.658Z,59.65
2023-01-08T16:35:23.384Z,54.15
2023-01-08T16:37:51.380Z,63.08
2023-01-08T16:40:19.481Z,55.13
2023-01-08T16:42:47.579Z,59.63
2023-01-08T16:45:15.637Z,52.67
2023-01-08T16:47:43.833Z,52.63
2023-01-08T16:50:12.634Z,55.42
2023-01-08T16:52:41.189Z,71.63
2023-01-08T16:55:11.323Z,64.15
2023-01-08T16:57:40.686Z,67.55
2023-01-08T17:00:09.696Z,66.32
2023-01-08T17:02:39.073Z,85.60
2023-01-08T17:05:08.046Z,98.43
2023-01-08T17:07:36.603Z,109.15
2023-01-08T17:10:05.757Z,116.18
2023-01-08T17:12:34.680Z,125.53
2023-01-08T17:15:02.902Z,116.50
2023-01-08T17:17:31.908Z,94.93
2023-01-08T17:20:00.410Z,83.50
2023-01-08T17:22:28.471Z,66.80
2023-01-08T17:24:56.986Z,69.90
2023-01-08T17:27:25.504Z,65.20
2023-01-08T17:29:54.551Z,64.10
2023-01-08T17:32:23.340Z,63.53
2023-01-08T17:34:51.533Z,61.30
2023-01-08T17:37:19.601Z,53.45
2023-01-08T17:39:48.818Z,51.08
2023-01-08T17:42:27.551Z,56.35
2023-01-08T17:44:58.715Z,58.65
2023-01-08T17:47:27.615Z,52.78
2023-01-08T17:49:57.584Z,48.65
2023-01-08T17:52:26.249Z,51.47
2023-01-08T17:54:54.957Z,59.90
2023-01-08T17:57:23.688Z,43.90
2023-01-08T17:59:51.932Z,53.58
2023-01-08T18:02:20.686Z,64.82
2023-01-08T18:04:49.565Z,67.00
2023-01-08T18:07:18.690Z,67.13
2023-01-08T18:09:49.324Z,81.25
2023-01-08T18:12:17.812Z,71.50
2023-01-08T18:14:46.501Z,83.90
2023-01-08T18:17:15.484Z,84.18
2023-01-08T18:19:44.325Z,79.38
2023-01-08T18:22:12.381Z,73.32
2023-01-08T18:24:40.765Z,80.25
2023-01-08T18:27:09.706Z,59.92
2023-01-08T18:29:38.896Z,56.53
2023-01-08T18:32:07.914Z,49.05
2023-01-08T18:34:36.569Z,48.78
2023-01-08T18:37:05.192Z,53.25
2023-01-08T18:39:33.544Z,55.65
2023-01-08T18:42:20.075Z,52.25
2023-01-08T18:44:48.630Z,48.22
2023-01-08T18:47:17.163Z,56.10
2023-01-08T18:49:45.423Z,57.28
2023-01-08T18:52:14.333Z,66.80
2023-01-08T18:54:42.758Z,62.30
2023-01-08T18:57:11.584Z,78.82
2023-01-08T18:59:40.214Z,81.22
2023-01-08T19:02:19.782Z,84.10
2023-01-08T19:04:48.773Z,80.32
2023-01-08T19:07:18.932Z,79.00
2023-01-08T19:09:47.125Z,75.00
2023-01-08T19:12:19.273Z,73.00
2023-01-08T19:14:48.788Z,75.22
2023-01-08T19:17:16.870Z,68.60
2023-01-08T19:19:44.939Z,58.75
2023-01-08T19:22:13.005Z,53.50
2023-01-08T19:24:41.848Z,50.80
2023-01-08T19:27:10.469Z,47.13
2023-01-08T19:29:38.684Z,45.15
2023-01-08T19:32:07.862Z,48.80
2023-01-08T19:34:35.912Z,46.25
2023-01-08T19:37:04.787Z,46.88
2023-01-08T19:39:32.995Z,41.38
2023-01-08T19:42:20.196Z,36.53
2023-01-08T19:44:48.766Z,33.58
2023-01-08T19:47:17.906Z,35.60
2023-01-08T19:49:48.027Z,35.65
2023-01-08T19:52:17.590Z,42.30
2023-01-08T19:54:46.585Z,54.80
2023-01-08T19:57:14.666Z,80.75
2023-01-08T19:59:43.393Z,70.55
2023-01-08T20:02:12.164Z,52.72
2023-01-08T20:04:46.447Z,53.08
2023-01-08T20:07:15.398Z,59.38
2023-01-08T20:09:44.097Z,100.25
2023-01-08T20:12:13.960Z,98.03
2023-01-08T20:14:42.158Z,102.18
2023-01-08T20:17:12.399Z,98.28
2023-01-08T20:19:40.970Z,92.63
2023-01-08T20:22:09.302Z,113.00
2023-01-08T20:24:39.615Z,101.38
2023-01-08T20:27:08.124Z,105.20
2023-01-08T20:29:36.966Z,106.32
2023-01-08T20:32:06.299Z,100.32
2023-01-08T20:34:34.507Z,98.47
2023-01-08T20:37:08.495Z,83.57
2023-01-08T20:39:37.499Z,83.10
2023-01-08T20:42:06.388Z,84.00
2023-01-08T20:44:36.005Z,90.38
2023-01-08T20:47:05.810Z,88.85
2023-01-08T20:49:34.641Z,81.60
2023-01-08T20:52:03.518Z,91.40
2023-01-08T20:54:31.666Z,82.35
2023-01-08T20:57:00.919Z,88.20
2023-01-08T20:59:29.583Z,84.00
2023-01-08T21:01:58.371Z,74.88
2023-01-08T21:04:26.988Z,58.53
2023-01-08T21:06:55.052Z,38.72
2023-01-08T21:09:23.171Z,37.58
2023-01-08T21:11:51.711Z,36.17
2023-01-08T21:14:45.873Z,37.22
2023-01-08T21:17:14.551Z,47.13
2023-01-08T21:19:43.237Z,46.10
2023-01-08T21:22:11.237Z,48.47
2023-01-08T21:24:39.795Z,66.03
2023-01-08T21:27:07.989Z,73.68
2023-01-08T21:29:36.987Z,87.53
2023-01-08T21:32:05.382Z,97.90
2023-01-08T21:34:33.503Z,89.32
2023-01-08T21:37:04.349Z,90.57
2023-01-08T21:39:33.237Z,92.13
2023-01-08T21:42:22.108Z,94.95
2023-01-08T21:45:09.857Z,87.28
2023-01-08T21:47:41.280Z,46.13
2023-01-08T21:50:10.875Z,46.75
2023-01-08T21:52:58.179Z,61.67
2023-01-08T21:55:26.702Z,56.65
2023-01-08T21:57:55.253Z,46.83
2023-01-08T22:00:24.376Z,56.30
2023-01-08T22:02:52.369Z,62.50
2023-01-08T22:06:10.639Z,67.32
2023-01-08T22:08:38.843Z,68.35
2023-01-08T22:11:09.332Z,73.05
2023-01-08T22:13:39.313Z,74.78
2023-01-08T22:16:09.884Z,81.45
2023-01-08T22:18:38.494Z,86.82
2023-01-08T22:26:07.919Z,84.10
2023-01-08T22:28:39.776Z,86.93
2023-01-08T22:31:13.296Z,83.57
2023-01-08T22:33:42.008Z,92.05
2023-01-08T22:36:13.796Z,75.57
2023-01-08T22:38:42.537Z,68.20
2023-01-08T22:41:23.080Z,83.90
2023-01-08T22:43:58.126Z,69.82
2023-01-08T22:46:27.272Z,64.55
2023-01-08T22:48:55.825Z,53.83
2023-01-08T22:51:27.828Z,68.20
2023-01-08T22:53:57.592Z,70.82
2023-01-08T22:56:26.809Z,70.63
2023-01-08T22:58:55.542Z,72.07
2023-01-08T23:01:25.628Z,68.95
2023-01-08T23:03:56.931Z,56.83
2023-01-08T23:06:27.128Z,72.00
2023-01-08T23:08:57.259Z,59.92
2023-01-08T23:11:26.671Z,58.22
2023-01-08T23:13:55.228Z,55.97
2023-01-08T23:16:25.503Z,48.53
2023-01-08T23:18:55.418Z,54.40
2023-01-08T23:21:25.611Z,57.97
2023-01-08T23:23:54.387Z,51.90
2023-01-08T23:26:28.782Z,49.67
2023-01-08T23:28:58.168Z,62.08
2023-01-08T23:31:28.883Z,57.80
2023-01-08T23:33:57.754Z,61.78
2023-01-08T23:36:26.055Z,70.88
2023-01-08T23:38:56.576Z,65.90
2023-01-08T23:41:33.725Z,63.45
2023-01-08T23:44:08.510Z,73.53
2023-01-08T23:46:37.554Z,77.20
2023-01-08T23:49:07.376Z,67.10
2023-01-08T23:51:36.166Z,61.95
2023-01-08T23:54:04.300Z,57.85
2023-01-08T23:56:32.486Z,62.53
2023-01-08T23:59:00.536Z,54.15
